sensor_id;sensor_type;location;lat;lon;timestamp;P1;durP1;ratioP1;P2;durP2;ratioP2
48823;SDS011;34640;53.590;10.054;2022-08-21T00:03:04;15.15;;;6.28;;
48823;SDS011;34640;53.590;10.054;2022-08-21T00:06:18;15.10;;;6.43;;
48823;SDS011;34640;53.590;10.054;2022-08-21T00:09:29;15.27;;;6.43;;
48823;SDS011;34640;53.590;10.054;2022-08-21T00:12:39;16.63;;;6.60;;
48823;SDS011;34640;53.590;10.054;2022-08-21T00:15:50;19.77;;;6.68;;
48823;SDS011;34640;53.590;10.054;2022-08-21T00:19:01;15.55;;;7.32;;
48823;SDS011;34640;53.590;10.054;2022-08-21T00:22:13;14.70;;;7.15;;
48823;SDS011;34640;53.590;10.054;2022-08-21T00:25:24;17.52;;;7.78;;
48823;SDS011;34640;53.590;10.054;2022-08-21T00:28:34;15.43;;;7.30;;
48823;SDS011;34640;53.590;10.054;2022-08-21T00:31:45;12.32;;;6.75;;
48823;SDS011;34640;53.590;10.054;2022-08-21T00:34:56;16.52;;;7.60;;
48823;SDS011;34640;53.590;10.054;2022-08-21T00:38:08;17.65;;;7.18;;
48823;SDS011;34640;53.590;10.054;2022-08-21T00:41:19;14.73;;;7.65;;
48823;SDS011;34640;53.590;10.054;2022-08-21T00:44:47;12.85;;;7.32;;
48823;SDS011;34640;53.590;10.054;2022-08-21T00:47:59;18.98;;;7.43;;
48823;SDS011;34640;53.590;10.054;2022-08-21T00:51:11;15.70;;;7.15;;
48823;SDS011;34640;53.590;10.054;2022-08-21T00:54:32;15.55;;;7.05;;
48823;SDS011;34640;53.590;10.054;2022-08-21T00:57:45;15.52;;;6.90;;
48823;SDS011;34640;53.590;10.054;2022-08-21T01:00:59;14.65;;;6.50;;
48823;SDS011;34640;53.590;10.054;2022-08-21T01:04:16;16.38;;;7.45;;
48823;SDS011;34640;53.590;10.054;2022-08-21T01:07:27;16.42;;;7.35;;
48823;SDS011;34640;53.590;10.054;2022-08-21T01:10:39;19.35;;;6.50;;
48823;SDS011;34640;53.590;10.054;2022-08-21T01:13:49;16.23;;;6.50;;
48823;SDS011;34640;53.590;10.054;2022-08-21T01:17:00;18.00;;;7.13;;
48823;SDS011;34640;53.590;10.054;2022-08-21T01:20:12;11.48;;;6.25;;
48823;SDS011;34640;53.590;10.054;2022-08-21T01:23:24;13.25;;;6.20;;
48823;SDS011;34640;53.590;10.054;2022-08-21T01:26:34;14.43;;;6.38;;
48823;SDS011;34640;53.590;10.054;2022-08-21T01:29:48;11.65;;;5.90;;
48823;SDS011;34640;53.590;10.054;2022-08-21T01:33:05;14.90;;;6.15;;
48823;SDS011;34640;53.590;10.054;2022-08-21T01:36:15;17.05;;;6.32;;
48823;SDS011;34640;53.590;10.054;2022-08-21T01:39:26;12.05;;;5.40;;
48823;SDS011;34640;53.590;10.054;2022-08-21T01:42:37;13.38;;;5.35;;
48823;SDS011;34640;53.590;10.054;2022-08-21T01:45:47;12.50;;;5.45;;
48823;SDS011;34640;53.590;10.054;2022-08-21T01:48:58;13.93;;;5.40;;
48823;SDS011;34640;53.590;10.054;2022-08-21T01:52:08;12.75;;;5.78;;
48823;SDS011;34640;53.590;10.054;2022-08-21T01:55:20;14.35;;;5.35;;
48823;SDS011;34640;53.590;10.054;2022-08-21T01:58:31;12.98;;;6.07;;
48823;SDS011;34640;53.590;10.054;2022-08-21T02:01:43;14.40;;;5.95;;
48823;SDS011;34640;53.590;10.054;2022-08-21T02:04:54;14.60;;;5.85;;
48823;SDS011;34640;53.590;10.054;2022-08-21T02:08:05;16.33;;;6.72;;
48823;SDS011;34640;53.590;10.054;2022-08-21T02:11:18;16.38;;;6.20;;
48823;SDS011;34640;53.590;10.054;2022-08-21T02:14:29;13.80;;;6.00;;
48823;SDS011;34640;53.590;10.054;2022-08-21T02:17:41;16.08;;;5.82;;
48823;SDS011;34640;53.590;10.054;2022-08-21T02:20:53;13.82;;;5.60;;
48823;SDS011;34640;53.590;10.054;2022-08-21T02:24:05;13.93;;;5.95;;
48823;SDS011;34640;53.590;10.054;2022-08-21T02:27:17;10.50;;;5.50;;
48823;SDS011;34640;53.590;10.054;2022-08-21T02:33:46;12.02;;;5.78;;
48823;SDS011;34640;53.590;10.054;2022-08-21T02:36:56;13.02;;;5.88;;
48823;SDS011;34640;53.590;10.054;2022-08-21T02:40:08;10.02;;;5.20;;
48823;SDS011;34640;53.590;10.054;2022-08-21T02:43:22;13.15;;;4.97;;
48823;SDS011;34640;53.590;10.054;2022-08-21T02:46:34;11.55;;;6.03;;
48823;SDS011;34640;53.590;10.054;2022-08-21T02:49:45;12.90;;;5.38;;
48823;SDS011;34640;53.590;10.054;2022-08-21T02:52:55;11.52;;;5.18;;
48823;SDS011;34640;53.590;10.054;2022-08-21T02:56:07;11.30;;;5.25;;
48823;SDS011;34640;53.590;10.054;2022-08-21T02:59:21;10.43;;;4.68;;
48823;SDS011;34640;53.590;10.054;2022-08-21T03:02:31;8.48;;;4.68;;
48823;SDS011;34640;53.590;10.054;2022-08-21T03:05:43;11.38;;;5.25;;
48823;SDS011;34640;53.590;10.054;2022-08-21T03:08:54;8.82;;;4.72;;
48823;SDS011;34640;53.590;10.054;2022-08-21T03:12:04;14.98;;;4.93;;
48823;SDS011;34640;53.590;10.054;2022-08-21T03:15:17;10.57;;;4.45;;
48823;SDS011;34640;53.590;10.054;2022-08-21T03:18:30;12.38;;;5.47;;
48823;SDS011;34640;53.590;10.054;2022-08-21T03:21:41;10.43;;;4.97;;
48823;SDS011;34640;53.590;10.054;2022-08-21T03:24:51;9.77;;;4.68;;
48823;SDS011;34640;53.590;10.054;2022-08-21T03:28:22;8.68;;;4.57;;
48823;SDS011;34640;53.590;10.054;2022-08-21T03:31:35;11.77;;;4.63;;
48823;SDS011;34640;53.590;10.054;2022-08-21T03:34:45;9.30;;;4.20;;
48823;SDS011;34640;53.590;10.054;2022-08-21T03:37:56;12.65;;;4.43;;
48823;SDS011;34640;53.590;10.054;2022-08-21T03:41:07;9.63;;;4.05;;
48823;SDS011;34640;53.590;10.054;2022-08-21T03:44:18;9.57;;;4.40;;
48823;SDS011;34640;53.590;10.054;2022-08-21T03:47:30;12.02;;;4.32;;
48823;SDS011;34640;53.590;10.054;2022-08-21T03:50:41;9.15;;;4.43;;
48823;SDS011;34640;53.590;10.054;2022-08-21T03:53:55;11.75;;;4.53;;
48823;SDS011;34640;53.590;10.054;2022-08-21T03:57:05;8.57;;;4.28;;
48823;SDS011;34640;53.590;10.054;2022-08-21T04:00:15;9.38;;;4.30;;
48823;SDS011;34640;53.590;10.054;2022-08-21T04:03:29;11.88;;;4.13;;
48823;SDS011;34640;53.590;10.054;2022-08-21T04:06:40;8.98;;;4.10;;
48823;SDS011;34640;53.590;10.054;2022-08-21T04:09:50;10.80;;;4.30;;
48823;SDS011;34640;53.590;10.054;2022-08-21T04:13:01;12.15;;;4.10;;
48823;SDS011;34640;53.590;10.054;2022-08-21T04:16:12;9.55;;;3.72;;
48823;SDS011;34640;53.590;10.054;2022-08-21T04:19:24;13.45;;;4.05;;
48823;SDS011;34640;53.590;10.054;2022-08-21T04:22:35;11.85;;;4.25;;
48823;SDS011;34640;53.590;10.054;2022-08-21T04:25:45;10.38;;;3.85;;
48823;SDS011;34640;53.590;10.054;2022-08-21T04:28:55;8.88;;;4.25;;
48823;SDS011;34640;53.590;10.054;2022-08-21T04:32:07;8.85;;;4.07;;
48823;SDS011;34640;53.590;10.054;2022-08-21T04:35:19;12.30;;;4.40;;
48823;SDS011;34640;53.590;10.054;2022-08-21T04:38:31;9.45;;;3.72;;
48823;SDS011;34640;53.590;10.054;2022-08-21T04:41:45;10.27;;;3.90;;
48823;SDS011;34640;53.590;10.054;2022-08-21T04:44:55;9.25;;;4.13;;
48823;SDS011;34640;53.590;10.054;2022-08-21T04:48:07;10.52;;;4.07;;
48823;SDS011;34640;53.590;10.054;2022-08-21T04:51:24;12.48;;;4.20;;
48823;SDS011;34640;53.590;10.054;2022-08-21T04:54:38;11.57;;;4.00;;
48823;SDS011;34640;53.590;10.054;2022-08-21T04:57:49;12.55;;;4.20;;
48823;SDS011;34640;53.590;10.054;2022-08-21T05:01:03;7.95;;;3.85;;
48823;SDS011;34640;53.590;10.054;2022-08-21T05:04:17;9.77;;;3.53;;
48823;SDS011;34640;53.590;10.054;2022-08-21T05:07:33;8.27;;;3.65;;
48823;SDS011;34640;53.590;10.054;2022-08-21T05:10:50;8.18;;;3.97;;
48823;SDS011;34640;53.590;10.054;2022-08-21T05:14:08;11.07;;;3.78;;
48823;SDS011;34640;53.590;10.054;2022-08-21T05:17:18;9.52;;;3.85;;
48823;SDS011;34640;53.590;10.054;2022-08-21T05:20:29;11.85;;;3.30;;
48823;SDS011;34640;53.590;10.054;2022-08-21T05:23:44;8.45;;;3.22;;
48823;SDS011;34640;53.590;10.054;2022-08-21T05:26:54;12.15;;;3.63;;
48823;SDS011;34640;53.590;10.054;2022-08-21T05:30:05;12.13;;;3.10;;
48823;SDS011;34640;53.590;10.054;2022-08-21T05:33:17;7.47;;;3.05;;
48823;SDS011;34640;53.590;10.054;2022-08-21T05:36:27;7.28;;;2.92;;
48823;SDS011;34640;53.590;10.054;2022-08-21T05:39:39;4.93;;;2.80;;
48823;SDS011;34640;53.590;10.054;2022-08-21T05:43:10;7.07;;;3.03;;
48823;SDS011;34640;53.590;10.054;2022-08-21T05:46:20;7.00;;;2.55;;
48823;SDS011;34640;53.590;10.054;2022-08-21T05:49:30;7.63;;;2.95;;
48823;SDS011;34640;53.590;10.054;2022-08-21T05:52:40;7.88;;;2.42;;
48823;SDS011;34640;53.590;10.054;2022-08-21T05:55:52;7.35;;;2.95;;
48823;SDS011;34640;53.590;10.054;2022-08-21T05:59:02;8.60;;;2.72;;
48823;SDS011;34640;53.590;10.054;2022-08-21T06:02:17;9.80;;;3.10;;
48823;SDS011;34640;53.590;10.054;2022-08-21T06:05:28;9.40;;;3.10;;
48823;SDS011;34640;53.590;10.054;2022-08-21T06:08:44;6.75;;;2.78;;
48823;SDS011;34640;53.590;10.054;2022-08-21T06:11:56;9.30;;;3.22;;
48823;SDS011;34640;53.590;10.054;2022-08-21T06:15:07;10.45;;;3.00;;
48823;SDS011;34640;53.590;10.054;2022-08-21T06:18:17;6.00;;;2.70;;
48823;SDS011;34640;53.590;10.054;2022-08-21T06:21:27;8.32;;;2.83;;
48823;SDS011;34640;53.590;10.054;2022-08-21T06:24:38;5.05;;;2.55;;
48823;SDS011;34640;53.590;10.054;2022-08-21T06:27:49;9.63;;;2.53;;
48823;SDS011;34640;53.590;10.054;2022-08-21T06:31:00;5.63;;;2.35;;
48823;SDS011;34640;53.590;10.054;2022-08-21T06:34:10;7.38;;;2.10;;
48823;SDS011;34640;53.590;10.054;2022-08-21T06:37:21;5.60;;;2.28;;
48823;SDS011;34640;53.590;10.054;2022-08-21T06:40:31;7.15;;;2.03;;
48823;SDS011;34640;53.590;10.054;2022-08-21T06:43:44;4.63;;;1.70;;
48823;SDS011;34640;53.590;10.054;2022-08-21T06:46:54;5.40;;;2.03;;
48823;SDS011;34640;53.590;10.054;2022-08-21T06:50:04;9.07;;;2.03;;
48823;SDS011;34640;53.590;10.054;2022-08-21T06:53:18;4.75;;;1.83;;
48823;SDS011;34640;53.590;10.054;2022-08-21T06:56:29;7.32;;;2.20;;
48823;SDS011;34640;53.590;10.054;2022-08-21T06:59:43;6.18;;;2.15;;
48823;SDS011;34640;53.590;10.054;2022-08-21T07:02:53;7.45;;;2.20;;
48823;SDS011;34640;53.590;10.054;2022-08-21T07:06:04;5.43;;;1.90;;
48823;SDS011;34640;53.590;10.054;2022-08-21T07:09:15;10.80;;;2.15;;
48823;SDS011;34640;53.590;10.054;2022-08-21T07:12:32;7.65;;;2.03;;
48823;SDS011;34640;53.590;10.054;2022-08-21T07:15:44;6.43;;;2.28;;
48823;SDS011;34640;53.590;10.054;2022-08-21T07:18:55;9.68;;;2.30;;
48823;SDS011;34640;53.590;10.054;2022-08-21T07:22:05;6.88;;;1.73;;
48823;SDS011;34640;53.590;10.054;2022-08-21T07:25:15;4.78;;;2.00;;
48823;SDS011;34640;53.590;10.054;2022-08-21T07:28:26;5.65;;;1.90;;
48823;SDS011;34640;53.590;10.054;2022-08-21T07:31:38;6.97;;;1.75;;
48823;SDS011;34640;53.590;10.054;2022-08-21T07:34:48;5.07;;;1.60;;
48823;SDS011;34640;53.590;10.054;2022-08-21T07:37:58;8.85;;;3.38;;
48823;SDS011;34640;53.590;10.054;2022-08-21T07:41:11;12.93;;;4.82;;
48823;SDS011;34640;53.590;10.054;2022-08-21T07:44:25;8.98;;;2.00;;
48823;SDS011;34640;53.590;10.054;2022-08-21T07:47:37;8.45;;;2.25;;
48823;SDS011;34640;53.590;10.054;2022-08-21T07:50:50;6.97;;;2.05;;
48823;SDS011;34640;53.590;10.054;2022-08-21T07:54:01;5.07;;;1.40;;
48823;SDS011;34640;53.590;10.054;2022-08-21T07:57:12;4.97;;;1.67;;
48823;SDS011;34640;53.590;10.054;2022-08-21T08:00:27;6.47;;;1.55;;
48823;SDS011;34640;53.590;10.054;2022-08-21T08:03:41;5.70;;;1.73;;
48823;SDS011;34640;53.590;10.054;2022-08-21T08:06:51;6.60;;;1.65;;
48823;SDS011;34640;53.590;10.054;2022-08-21T08:10:02;6.05;;;1.85;;
48823;SDS011;34640;53.590;10.054;2022-08-21T08:13:13;9.90;;;1.85;;
48823;SDS011;34640;53.590;10.054;2022-08-21T08:16:24;4.30;;;1.52;;
48823;SDS011;34640;53.590;10.054;2022-08-21T08:19:35;8.30;;;1.63;;
48823;SDS011;34640;53.590;10.054;2022-08-21T08:22:46;5.40;;;1.70;;
48823;SDS011;34640;53.590;10.054;2022-08-21T08:26:07;5.25;;;1.65;;
48823;SDS011;34640;53.590;10.054;2022-08-21T08:29:17;7.72;;;1.92;;
48823;SDS011;34640;53.590;10.054;2022-08-21T08:32:27;6.32;;;1.75;;
48823;SDS011;34640;53.590;10.054;2022-08-21T08:35:39;6.00;;;1.85;;
48823;SDS011;34640;53.590;10.054;2022-08-21T08:38:50;7.38;;;1.83;;
48823;SDS011;34640;53.590;10.054;2022-08-21T08:42:03;4.20;;;1.88;;
48823;SDS011;34640;53.590;10.054;2022-08-21T08:45:39;11.60;;;3.17;;
48823;SDS011;34640;53.590;10.054;2022-08-21T08:48:53;7.93;;;2.00;;
48823;SDS011;34640;53.590;10.054;2022-08-21T08:52:14;7.03;;;2.37;;
48823;SDS011;34640;53.590;10.054;2022-08-21T08:55:32;6.75;;;2.05;;
48823;SDS011;34640;53.590;10.054;2022-08-21T08:58:44;8.90;;;2.47;;
48823;SDS011;34640;53.590;10.054;2022-08-21T09:01:57;11.38;;;2.50;;
48823;SDS011;34640;53.590;10.054;2022-08-21T09:05:08;10.27;;;2.47;;
48823;SDS011;34640;53.590;10.054;2022-08-21T09:08:27;10.07;;;2.60;;
48823;SDS011;34640;53.590;10.054;2022-08-21T09:11:52;11.73;;;2.78;;
48823;SDS011;34640;53.590;10.054;2022-08-21T09:15:12;10.10;;;2.22;;
48823;SDS011;34640;53.590;10.054;2022-08-21T09:18:33;11.30;;;2.33;;
48823;SDS011;34640;53.590;10.054;2022-08-21T09:21:53;9.75;;;1.80;;
48823;SDS011;34640;53.590;10.054;2022-08-21T09:25:15;9.68;;;2.15;;
48823;SDS011;34640;53.590;10.054;2022-08-21T09:28:32;8.57;;;2.30;;
48823;SDS011;34640;53.590;10.054;2022-08-21T09:31:44;8.35;;;2.15;;
48823;SDS011;34640;53.590;10.054;2022-08-21T09:34:55;11.27;;;2.40;;
48823;SDS011;34640;53.590;10.054;2022-08-21T09:38:08;10.90;;;2.40;;
48823;SDS011;34640;53.590;10.054;2022-08-21T09:41:27;11.05;;;2.00;;
48823;SDS011;34640;53.590;10.054;2022-08-21T09:44:40;9.35;;;1.83;;
48823;SDS011;34640;53.590;10.054;2022-08-21T09:47:52;6.00;;;1.98;;
48823;SDS011;34640;53.590;10.054;2022-08-21T09:51:07;9.07;;;2.33;;
48823;SDS011;34640;53.590;10.054;2022-08-21T09:54:20;8.70;;;1.75;;
48823;SDS011;34640;53.590;10.054;2022-08-21T09:57:38;9.10;;;2.00;;
48823;SDS011;34640;53.590;10.054;2022-08-21T10:00:56;9.93;;;2.20;;
48823;SDS011;34640;53.590;10.054;2022-08-21T10:04:08;7.70;;;2.22;;
48823;SDS011;34640;53.590;10.054;2022-08-21T10:07:20;7.30;;;1.70;;
48823;SDS011;34640;53.590;10.054;2022-08-21T10:10:36;9.35;;;2.08;;
48823;SDS011;34640;53.590;10.054;2022-08-21T10:13:50;10.07;;;2.10;;
48823;SDS011;34640;53.590;10.054;2022-08-21T10:17:07;6.45;;;1.80;;
48823;SDS011;34640;53.590;10.054;2022-08-21T10:20:27;10.68;;;1.77;;
48823;SDS011;34640;53.590;10.054;2022-08-21T10:23:50;6.15;;;1.60;;
48823;SDS011;34640;53.590;10.054;2022-08-21T10:27:16;10.10;;;1.75;;
48823;SDS011;34640;53.590;10.054;2022-08-21T10:30:38;8.13;;;1.67;;
48823;SDS011;34640;53.590;10.054;2022-08-21T10:33:59;8.20;;;2.10;;
48823;SDS011;34640;53.590;10.054;2022-08-21T10:37:22;9.35;;;2.60;;
48823;SDS011;34640;53.590;10.054;2022-08-21T10:40:42;6.95;;;2.00;;
48823;SDS011;34640;53.590;10.054;2022-08-21T10:44:04;6.63;;;1.77;;
48823;SDS011;34640;53.590;10.054;2022-08-21T10:47:24;9.13;;;2.15;;
48823;SDS011;34640;53.590;10.054;2022-08-21T10:50:44;6.40;;;1.92;;
48823;SDS011;34640;53.590;10.054;2022-08-21T10:54:01;8.05;;;1.90;;
48823;SDS011;34640;53.590;10.054;2022-08-21T10:57:22;11.82;;;2.28;;
48823;SDS011;34640;53.590;10.054;2022-08-21T11:00:41;11.05;;;1.80;;
48823;SDS011;34640;53.590;10.054;2022-08-21T11:03:59;8.27;;;1.90;;
48823;SDS011;34640;53.590;10.054;2022-08-21T11:07:19;14.00;;;6.15;;
48823;SDS011;34640;53.590;10.054;2022-08-21T11:10:33;6.47;;;1.70;;
48823;SDS011;34640;53.590;10.054;2022-08-21T11:14:08;7.25;;;1.48;;
48823;SDS011;34640;53.590;10.054;2022-08-21T11:17:24;7.93;;;1.77;;
48823;SDS011;34640;53.590;10.054;2022-08-21T11:20:43;7.25;;;2.15;;
48823;SDS011;34640;53.590;10.054;2022-08-21T11:24:00;5.32;;;1.60;;
48823;SDS011;34640;53.590;10.054;2022-08-21T11:27:21;5.95;;;1.85;;
48823;SDS011;34640;53.590;10.054;2022-08-21T11:30:37;10.50;;;2.35;;
48823;SDS011;34640;53.590;10.054;2022-08-21T11:33:58;5.10;;;1.95;;
48823;SDS011;34640;53.590;10.054;2022-08-21T11:37:21;6.55;;;2.80;;
48823;SDS011;34640;53.590;10.054;2022-08-21T11:40:47;5.85;;;1.60;;
48823;SDS011;34640;53.590;10.054;2022-08-21T11:44:09;5.43;;;1.80;;
48823;SDS011;34640;53.590;10.054;2022-08-21T11:47:27;7.72;;;2.05;;
48823;SDS011;34640;53.590;10.054;2022-08-21T11:50:43;6.05;;;1.50;;
48823;SDS011;34640;53.590;10.054;2022-08-21T11:53:58;6.03;;;1.58;;
48823;SDS011;34640;53.590;10.054;2022-08-21T11:57:17;4.28;;;1.60;;
48823;SDS011;34640;53.590;10.054;2022-08-21T12:00:31;5.63;;;1.70;;
48823;SDS011;34640;53.590;10.054;2022-08-21T12:03:51;3.42;;;1.40;;
48823;SDS011;34640;53.590;10.054;2022-08-21T12:07:10;6.35;;;1.73;;
48823;SDS011;34640;53.590;10.054;2022-08-21T12:10:30;2.83;;;1.25;;
48823;SDS011;34640;53.590;10.054;2022-08-21T12:13:52;2.72;;;1.30;;
48823;SDS011;34640;53.590;10.054;2022-08-21T12:17:05;6.63;;;1.67;;
48823;SDS011;34640;53.590;10.054;2022-08-21T12:20:36;3.25;;;1.25;;
48823;SDS011;34640;53.590;10.054;2022-08-21T12:24:00;4.10;;;1.65;;
48823;SDS011;34640;53.590;10.054;2022-08-21T12:27:18;3.35;;;1.70;;
48823;SDS011;34640;53.590;10.054;2022-08-21T12:30:35;4.07;;;1.50;;
48823;SDS011;34640;53.590;10.054;2022-08-21T12:33:50;3.67;;;1.50;;
48823;SDS011;34640;53.590;10.054;2022-08-21T12:37:05;4.72;;;1.42;;
48823;SDS011;34640;53.590;10.054;2022-08-21T12:40:26;4.15;;;1.23;;
48823;SDS011;34640;53.590;10.054;2022-08-21T12:43:41;3.83;;;1.35;;
48823;SDS011;34640;53.590;10.054;2022-08-21T12:46:57;4.93;;;1.40;;
48823;SDS011;34640;53.590;10.054;2022-08-21T12:50:11;6.50;;;1.95;;
48823;SDS011;34640;53.590;10.054;2022-08-21T12:53:29;5.00;;;1.25;;
48823;SDS011;34640;53.590;10.054;2022-08-21T12:56:42;2.55;;;1.00;;
48823;SDS011;34640;53.590;10.054;2022-08-21T12:59:55;4.32;;;1.77;;
48823;SDS011;34640;53.590;10.054;2022-08-21T13:03:07;7.38;;;1.38;;
48823;SDS011;34640;53.590;10.054;2022-08-21T13:06:18;5.03;;;1.58;;
48823;SDS011;34640;53.590;10.054;2022-08-21T13:09:33;4.13;;;1.40;;
48823;SDS011;34640;53.590;10.054;2022-08-21T13:12:44;4.53;;;1.40;;
48823;SDS011;34640;53.590;10.054;2022-08-21T13:15:58;4.43;;;1.35;;
48823;SDS011;34640;53.590;10.054;2022-08-21T13:19:16;7.57;;;1.90;;
48823;SDS011;34640;53.590;10.054;2022-08-21T13:22:31;4.85;;;1.35;;
48823;SDS011;34640;53.590;10.054;2022-08-21T13:25:45;3.58;;;1.27;;
48823;SDS011;34640;53.590;10.054;2022-08-21T13:28:56;3.75;;;1.27;;
48823;SDS011;34640;53.590;10.054;2022-08-21T13:32:21;5.57;;;1.33;;
48823;SDS011;34640;53.590;10.054;2022-08-21T13:35:44;4.60;;;1.52;;
48823;SDS011;34640;53.590;10.054;2022-08-21T13:38:57;6.05;;;1.20;;
48823;SDS011;34640;53.590;10.054;2022-08-21T13:42:10;3.22;;;0.82;;
48823;SDS011;34640;53.590;10.054;2022-08-21T13:45:24;2.17;;;1.30;;
48823;SDS011;34640;53.590;10.054;2022-08-21T13:48:37;7.75;;;2.85;;
48823;SDS011;34640;53.590;10.054;2022-08-21T13:51:48;3.47;;;1.42;;
48823;SDS011;34640;53.590;10.054;2022-08-21T13:55:07;5.50;;;1.60;;
48823;SDS011;34640;53.590;10.054;2022-08-21T13:58:24;2.65;;;1.40;;
48823;SDS011;34640;53.590;10.054;2022-08-21T14:01:36;6.82;;;1.77;;
48823;SDS011;34640;53.590;10.054;2022-08-21T14:04:52;3.35;;;1.30;;
48823;SDS011;34640;53.590;10.054;2022-08-21T14:08:07;6.40;;;1.58;;
48823;SDS011;34640;53.590;10.054;2022-08-21T14:11:21;7.38;;;2.25;;
48823;SDS011;34640;53.590;10.054;2022-08-21T14:14:32;5.18;;;1.50;;
48823;SDS011;34640;53.590;10.054;2022-08-21T14:17:45;6.00;;;1.60;;
48823;SDS011;34640;53.590;10.054;2022-08-21T14:21:05;4.40;;;1.23;;
48823;SDS011;34640;53.590;10.054;2022-08-21T14:24:25;2.90;;;1.05;;
48823;SDS011;34640;53.590;10.054;2022-08-21T14:27:39;4.60;;;1.10;;
48823;SDS011;34640;53.590;10.054;2022-08-21T14:30:54;3.95;;;1.40;;
48823;SDS011;34640;53.590;10.054;2022-08-21T14:34:06;2.83;;;1.23;;
48823;SDS011;34640;53.590;10.054;2022-08-21T14:37:28;6.55;;;1.60;;
48823;SDS011;34640;53.590;10.054;2022-08-21T14:40:47;4.70;;;1.52;;
48823;SDS011;34640;53.590;10.054;2022-08-21T14:43:59;5.50;;;1.80;;
48823;SDS011;34640;53.590;10.054;2022-08-21T14:47:18;6.25;;;2.00;;
48823;SDS011;34640;53.590;10.054;2022-08-21T14:50:28;5.43;;;1.65;;
48823;SDS011;34640;53.590;10.054;2022-08-21T14:53:40;4.35;;;1.70;;
48823;SDS011;34640;53.590;10.054;2022-08-21T14:56:50;7.20;;;1.85;;
48823;SDS011;34640;53.590;10.054;2022-08-21T15:00:02;5.22;;;1.58;;
48823;SDS011;34640;53.590;10.054;2022-08-21T15:03:13;4.57;;;1.35;;
48823;SDS011;34640;53.590;10.054;2022-08-21T15:06:23;6.28;;;1.60;;
48823;SDS011;34640;53.590;10.054;2022-08-21T15:09:35;4.43;;;1.73;;
48823;SDS011;34640;53.590;10.054;2022-08-21T15:12:45;3.13;;;0.95;;
48823;SDS011;34640;53.590;10.054;2022-08-21T15:15:57;4.93;;;1.17;;
48823;SDS011;34640;53.590;10.054;2022-08-21T15:19:07;3.97;;;1.10;;
48823;SDS011;34640;53.590;10.054;2022-08-21T15:22:18;4.95;;;1.30;;
48823;SDS011;34640;53.590;10.054;2022-08-21T15:25:39;5.32;;;1.50;;
48823;SDS011;34640;53.590;10.054;2022-08-21T15:28:51;5.40;;;1.50;;
48823;SDS011;34640;53.590;10.054;2022-08-21T15:32:03;3.80;;;1.20;;
48823;SDS011;34640;53.590;10.054;2022-08-21T15:35:26;4.95;;;1.67;;
48823;SDS011;34640;53.590;10.054;2022-08-21T15:38:37;6.78;;;1.60;;
48823;SDS011;34640;53.590;10.054;2022-08-21T15:41:48;7.60;;;1.50;;
48823;SDS011;34640;53.590;10.054;2022-08-21T15:44:59;5.35;;;1.40;;
48823;SDS011;34640;53.590;10.054;2022-08-21T15:48:10;2.97;;;0.98;;
48823;SDS011;34640;53.590;10.054;2022-08-21T15:51:20;4.90;;;1.05;;
48823;SDS011;34640;53.590;10.054;2022-08-21T15:54:31;3.42;;;1.30;;
48823;SDS011;34640;53.590;10.054;2022-08-21T15:57:44;10.40;;;4.93;;
48823;SDS011;34640;53.590;10.054;2022-08-21T16:01:06;6.43;;;1.75;;
48823;SDS011;34640;53.590;10.054;2022-08-21T16:04:19;7.43;;;1.70;;
48823;SDS011;34640;53.590;10.054;2022-08-21T16:07:31;4.72;;;1.30;;
48823;SDS011;34640;53.590;10.054;2022-08-21T16:10:42;5.90;;;1.50;;
48823;SDS011;34640;53.590;10.054;2022-08-21T16:13:54;7.15;;;1.33;;
48823;SDS011;34640;53.590;10.054;2022-08-21T16:17:05;5.00;;;1.08;;
48823;SDS011;34640;53.590;10.054;2022-08-21T16:20:19;6.47;;;1.50;;
48823;SDS011;34640;53.590;10.054;2022-08-21T16:23:32;4.93;;;1.27;;
48823;SDS011;34640;53.590;10.054;2022-08-21T16:26:43;5.10;;;1.63;;
48823;SDS011;34640;53.590;10.054;2022-08-21T16:30:07;7.35;;;1.92;;
48823;SDS011;34640;53.590;10.054;2022-08-21T16:33:21;6.07;;;1.67;;
48823;SDS011;34640;53.590;10.054;2022-08-21T16:36:34;3.42;;;1.23;;
48823;SDS011;34640;53.590;10.054;2022-08-21T16:39:45;6.15;;;1.80;;
48823;SDS011;34640;53.590;10.054;2022-08-21T16:42:58;4.90;;;1.48;;
48823;SDS011;34640;53.590;10.054;2022-08-21T16:46:10;4.03;;;1.10;;
48823;SDS011;34640;53.590;10.054;2022-08-21T16:49:22;4.85;;;2.25;;
48823;SDS011;34640;53.590;10.054;2022-08-21T16:52:33;5.05;;;1.58;;
48823;SDS011;34640;53.590;10.054;2022-08-21T16:55:43;4.72;;;1.20;;
48823;SDS011;34640;53.590;10.054;2022-08-21T16:58:54;4.13;;;1.05;;
48823;SDS011;34640;53.590;10.054;2022-08-21T17:02:11;5.10;;;1.17;;
48823;SDS011;34640;53.590;10.054;2022-08-21T17:05:30;3.67;;;1.38;;
48823;SDS011;34640;53.590;10.054;2022-08-21T17:08:40;4.82;;;1.40;;
48823;SDS011;34640;53.590;10.054;2022-08-21T17:11:51;3.75;;;1.75;;
48823;SDS011;34640;53.590;10.054;2022-08-21T17:15:03;4.85;;;2.05;;
48823;SDS011;34640;53.590;10.054;2022-08-21T17:18:20;8.57;;;2.35;;
48823;SDS011;34640;53.590;10.054;2022-08-21T17:21:32;6.03;;;3.33;;
48823;SDS011;34640;53.590;10.054;2022-08-21T17:24:42;5.90;;;2.70;;
48823;SDS011;34640;53.590;10.054;2022-08-21T17:27:52;4.35;;;1.40;;
48823;SDS011;34640;53.590;10.054;2022-08-21T17:31:04;4.95;;;1.40;;
48823;SDS011;34640;53.590;10.054;2022-08-21T17:34:19;5.68;;;1.50;;
48823;SDS011;34640;53.590;10.054;2022-08-21T17:37:36;6.25;;;2.25;;
48823;SDS011;34640;53.590;10.054;2022-08-21T17:40:46;5.72;;;1.75;;
48823;SDS011;34640;53.590;10.054;2022-08-21T17:43:58;6.53;;;1.20;;
48823;SDS011;34640;53.590;10.054;2022-08-21T17:47:13;3.75;;;1.38;;
48823;SDS011;34640;53.590;10.054;2022-08-21T17:50:25;7.53;;;1.50;;
48823;SDS011;34640;53.590;10.054;2022-08-21T17:53:36;7.22;;;1.80;;
48823;SDS011;34640;53.590;10.054;2022-08-21T17:56:46;7.82;;;2.75;;
48823;SDS011;34640;53.590;10.054;2022-08-21T17:59:57;3.20;;;1.38;;
48823;SDS011;34640;53.590;10.054;2022-08-21T18:03:09;5.90;;;1.75;;
48823;SDS011;34640;53.590;10.054;2022-08-21T18:06:24;6.78;;;1.63;;
48823;SDS011;34640;53.590;10.054;2022-08-21T18:09:34;8.85;;;1.70;;
48823;SDS011;34640;53.590;10.054;2022-08-21T18:12:45;6.93;;;1.50;;
48823;SDS011;34640;53.590;10.054;2022-08-21T18:15:56;8.20;;;1.40;;
48823;SDS011;34640;53.590;10.054;2022-08-21T18:19:10;9.40;;;1.80;;
48823;SDS011;34640;53.590;10.054;2022-08-21T18:22:25;8.10;;;1.65;;
48823;SDS011;34640;53.590;10.054;2022-08-21T18:25:35;6.88;;;1.70;;
48823;SDS011;34640;53.590;10.054;2022-08-21T18:28:46;11.10;;;2.50;;
48823;SDS011;34640;53.590;10.054;2022-08-21T18:31:57;6.53;;;1.80;;
48823;SDS011;34640;53.590;10.054;2022-08-21T18:35:07;5.75;;;1.58;;
48823;SDS011;34640;53.590;10.054;2022-08-21T18:38:20;7.68;;;2.17;;
48823;SDS011;34640;53.590;10.054;2022-08-21T18:41:30;9.50;;;2.53;;
48823;SDS011;34640;53.590;10.054;2022-08-21T18:44:42;10.48;;;1.80;;
48823;SDS011;34640;53.590;10.054;2022-08-21T18:47:55;12.13;;;2.38;;
48823;SDS011;34640;53.590;10.054;2022-08-21T18:51:06;8.82;;;2.33;;
48823;SDS011;34640;53.590;10.054;2022-08-21T18:54:20;6.80;;;1.92;;
48823;SDS011;34640;53.590;10.054;2022-08-21T18:57:31;10.13;;;2.13;;
48823;SDS011;34640;53.590;10.054;2022-08-21T19:00:44;8.60;;;2.60;;
48823;SDS011;34640;53.590;10.054;2022-08-21T19:03:58;8.35;;;1.85;;
48823;SDS011;34640;53.590;10.054;2022-08-21T19:07:09;7.88;;;2.00;;
48823;SDS011;34640;53.590;10.054;2022-08-21T19:10:22;8.07;;;1.90;;